sensor_id;sensor_type;location;lat;lon;timestamp;temperature;humidity
69776;DHT22;57049;51.450;-2.516;2022-11-14T00:00:27;12.24;99.69
69776;DHT22;57049;51.450;-2.516;2022-11-14T00:02:54;12.25;99.70
69776;DHT22;57049;51.450;-2.516;2022-11-14T00:05:20;12.24;99.84
69776;DHT22;57049;51.450;-2.516;2022-11-14T00:07:46;12.32;99.61
69776;DHT22;57049;51.450;-2.516;2022-11-14T00:10:13;12.38;99.48
69776;DHT22;57049;51.450;-2.516;2022-11-14T00:12:39;12.38;99.50
69776;DHT22;57049;51.450;-2.516;2022-11-14T00:15:05;12.44;99.40
69776;DHT22;57049;51.450;-2.516;2022-11-14T00:17:30;12.48;99.33
69776;DHT22;57049;51.450;-2.516;2022-11-14T00:19:56;12.42;99.38
69776;DHT22;57049;51.450;-2.516;2022-11-14T00:22:21;12.39;99.37
69776;DHT22;57049;51.450;-2.516;2022-11-14T00:24:47;12.46;99.43
69776;DHT22;57049;51.450;-2.516;2022-11-14T00:27:13;12.44;99.40
69776;DHT22;57049;51.450;-2.516;2022-11-14T00:29:38;12.45;99.43
69776;DHT22;57049;51.450;-2.516;2022-11-14T00:32:04;12.48;99.52
69776;DHT22;57049;51.450;-2.516;2022-11-14T00:34:29;12.50;99.49
69776;DHT22;57049;51.450;-2.516;2022-11-14T00:36:55;12.52;99.60
69776;DHT22;57049;51.450;-2.516;2022-11-14T00:39:20;12.56;99.47
69776;DHT22;57049;51.450;-2.516;2022-11-14T00:41:46;12.55;99.52
69776;DHT22;57049;51.450;-2.516;2022-11-14T00:44:11;12.59;99.43
69776;DHT22;57049;51.450;-2.516;2022-11-14T00:46:37;12.55;99.55
69776;DHT22;57049;51.450;-2.516;2022-11-14T00:49:03;12.55;99.46
69776;DHT22;57049;51.450;-2.516;2022-11-14T00:51:28;12.52;99.61
69776;DHT22;57049;51.450;-2.516;2022-11-14T00:53:54;12.58;99.63
69776;DHT22;57049;51.450;-2.516;2022-11-14T00:56:19;12.60;99.59
69776;DHT22;57049;51.450;-2.516;2022-11-14T00:58:44;12.60;99.65
69776;DHT22;57049;51.450;-2.516;2022-11-14T01:01:10;12.62;99.58
69776;DHT22;57049;51.450;-2.516;2022-11-14T01:03:36;12.60;99.56
69776;DHT22;57049;51.450;-2.516;2022-11-14T01:06:08;12.70;99.37
69776;DHT22;57049;51.450;-2.516;2022-11-14T01:08:33;12.69;99.41
69776;DHT22;57049;51.450;-2.516;2022-11-14T01:10:59;12.73;99.42
69776;DHT22;57049;51.450;-2.516;2022-11-14T01:13:25;12.76;99.15
69776;DHT22;57049;51.450;-2.516;2022-11-14T01:15:51;12.79;99.25
69776;DHT22;57049;51.450;-2.516;2022-11-14T01:18:20;12.82;99.21
69776;DHT22;57049;51.450;-2.516;2022-11-14T01:20:47;12.76;99.24
69776;DHT22;57049;51.450;-2.516;2022-11-14T01:23:15;12.78;99.31
69776;DHT22;57049;51.450;-2.516;2022-11-14T01:25:41;12.75;99.42
69776;DHT22;57049;51.450;-2.516;2022-11-14T01:28:09;12.79;99.36
69776;DHT22;57049;51.450;-2.516;2022-11-14T01:30:35;12.76;99.48
69776;DHT22;57049;51.450;-2.516;2022-11-14T01:33:01;12.83;99.27
69776;DHT22;57049;51.450;-2.516;2022-11-14T01:35:28;12.83;99.36
69776;DHT22;57049;51.450;-2.516;2022-11-14T01:37:53;12.88;99.25
69776;DHT22;57049;51.450;-2.516;2022-11-14T01:40:19;12.88;99.25
69776;DHT22;57049;51.450;-2.516;2022-11-14T01:49:04;12.86;99.38
69776;DHT22;57049;51.450;-2.516;2022-11-14T01:51:45;12.90;99.45
69776;DHT22;57049;51.450;-2.516;2022-11-14T01:54:18;12.89;99.41
69776;DHT22;57049;51.450;-2.516;2022-11-14T01:56:48;12.93;99.43
69776;DHT22;57049;51.450;-2.516;2022-11-14T01:59:22;12.95;99.32
69776;DHT22;57049;51.450;-2.516;2022-11-14T02:01:50;12.90;99.41
69776;DHT22;57049;51.450;-2.516;2022-11-14T02:04:27;12.89;99.58
69776;DHT22;57049;51.450;-2.516;2022-11-14T02:07:03;12.95;99.47
69776;DHT22;57049;51.450;-2.516;2022-11-14T02:09:33;12.92;99.49
69776;DHT22;57049;51.450;-2.516;2022-11-14T02:12:02;12.99;99.36
69776;DHT22;57049;51.450;-2.516;2022-11-14T02:14:29;12.97;99.42
69776;DHT22;57049;51.450;-2.516;2022-11-14T02:16:55;13.00;99.36
69776;DHT22;57049;51.450;-2.516;2022-11-14T02:19:20;12.97;99.37
69776;DHT22;57049;51.450;-2.516;2022-11-14T02:21:46;12.96;99.38
69776;DHT22;57049;51.450;-2.516;2022-11-14T02:24:12;12.93;99.58
69776;DHT22;57049;51.450;-2.516;2022-11-14T02:26:38;12.95;99.72
69776;DHT22;57049;51.450;-2.516;2022-11-14T02:29:05;12.95;99.68
69776;DHT22;57049;51.450;-2.516;2022-11-14T02:31:32;13.00;99.55
69776;DHT22;57049;51.450;-2.516;2022-11-14T02:33:57;12.96;99.69
69776;DHT22;57049;51.450;-2.516;2022-11-14T02:36:23;13.00;99.65
69776;DHT22;57049;51.450;-2.516;2022-11-14T02:38:48;13.00;99.71
69776;DHT22;57049;51.450;-2.516;2022-11-14T02:41:14;12.95;99.78
69776;DHT22;57049;51.450;-2.516;2022-11-14T02:43:39;12.95;99.80
69776;DHT22;57049;51.450;-2.516;2022-11-14T02:46:05;12.97;99.74
69776;DHT22;57049;51.450;-2.516;2022-11-14T02:48:30;12.97;99.89
69776;DHT22;57049;51.450;-2.516;2022-11-14T02:50:55;13.00;99.83
69776;DHT22;57049;51.450;-2.516;2022-11-14T02:53:21;12.96;99.85
69776;DHT22;57049;51.450;-2.516;2022-11-14T02:55:46;12.95;99.85
69776;DHT22;57049;51.450;-2.516;2022-11-14T02:58:12;12.96;99.86
69776;DHT22;57049;51.450;-2.516;2022-11-14T03:00:37;12.96;99.82
69776;DHT22;57049;51.450;-2.516;2022-11-14T03:03:03;13.02;99.89
69776;DHT22;57049;51.450;-2.516;2022-11-14T03:05:28;13.00;99.82
69776;DHT22;57049;51.450;-2.516;2022-11-14T03:07:54;12.97;99.88
69776;DHT22;57049;51.450;-2.516;2022-11-14T03:10:20;12.96;99.85
69776;DHT22;57049;51.450;-2.516;2022-11-14T03:12:46;12.97;99.90
69776;DHT22;57049;51.450;-2.516;2022-11-14T03:15:12;12.95;99.99
69776;DHT22;57049;51.450;-2.516;2022-11-14T03:17:37;12.95;99.99
69776;DHT22;57049;51.450;-2.516;2022-11-14T03:20:03;12.88;99.99
69776;DHT22;57049;51.450;-2.516;2022-11-14T03:22:29;13.07;99.75
69776;DHT22;57049;51.450;-2.516;2022-11-14T03:24:55;13.00;99.61
69776;DHT22;57049;51.450;-2.516;2022-11-14T03:27:20;13.07;99.36
69776;DHT22;57049;51.450;-2.516;2022-11-14T03:29:47;13.00;99.44
69776;DHT22;57049;51.450;-2.516;2022-11-14T03:32:13;12.97;99.58
69776;DHT22;57049;51.450;-2.516;2022-11-14T03:34:38;13.03;99.57
69776;DHT22;57049;51.450;-2.516;2022-11-14T03:37:04;13.09;99.35
69776;DHT22;57049;51.450;-2.516;2022-11-14T03:39:29;13.09;98.98
69776;DHT22;57049;51.450;-2.516;2022-11-14T03:41:55;13.03;99.16
69776;DHT22;57049;51.450;-2.516;2022-11-14T03:44:20;13.09;98.97
69776;DHT22;57049;51.450;-2.516;2022-11-14T03:46:46;13.02;99.16
69776;DHT22;57049;51.450;-2.516;2022-11-14T03:49:11;12.95;99.29
69776;DHT22;57049;51.450;-2.516;2022-11-14T03:51:37;13.04;99.30
69776;DHT22;57049;51.450;-2.516;2022-11-14T03:54:02;12.99;99.27
69776;DHT22;57049;51.450;-2.516;2022-11-14T03:56:28;13.02;99.31
69776;DHT22;57049;51.450;-2.516;2022-11-14T03:58:53;12.97;99.20
69776;DHT22;57049;51.450;-2.516;2022-11-14T04:01:19;12.88;99.31
69776;DHT22;57049;51.450;-2.516;2022-11-14T04:03:44;12.93;99.37
69776;DHT22;57049;51.450;-2.516;2022-11-14T04:06:10;12.99;99.30
69776;DHT22;57049;51.450;-2.516;2022-11-14T04:08:35;13.02;98.95
69776;DHT22;57049;51.450;-2.516;2022-11-14T04:11:01;13.07;98.79
69776;DHT22;57049;51.450;-2.516;2022-11-14T04:13:26;13.03;98.93
69776;DHT22;57049;51.450;-2.516;2022-11-14T04:15:56;13.03;99.08
69776;DHT22;57049;51.450;-2.516;2022-11-14T04:18:23;12.97;99.28
69776;DHT22;57049;51.450;-2.516;2022-11-14T04:20:48;12.93;99.36
69776;DHT22;57049;51.450;-2.516;2022-11-14T04:23:14;13.02;99.34
69776;DHT22;57049;51.450;-2.516;2022-11-14T04:25:39;12.97;99.41
69776;DHT22;57049;51.450;-2.516;2022-11-14T04:28:06;12.99;99.45
69776;DHT22;57049;51.450;-2.516;2022-11-14T04:30:32;13.02;99.42
69776;DHT22;57049;51.450;-2.516;2022-11-14T04:32:57;13.04;99.31
69776;DHT22;57049;51.450;-2.516;2022-11-14T04:35:23;13.09;99.19
69776;DHT22;57049;51.450;-2.516;2022-11-14T04:37:48;13.06;98.99
69776;DHT22;57049;51.450;-2.516;2022-11-14T04:40:14;13.10;98.86
69776;DHT22;57049;51.450;-2.516;2022-11-14T04:42:39;13.10;98.49
69776;DHT22;57049;51.450;-2.516;2022-11-14T04:45:05;13.11;98.65
69776;DHT22;57049;51.450;-2.516;2022-11-14T04:47:31;13.11;98.44
69776;DHT22;57049;51.450;-2.516;2022-11-14T04:49:57;13.13;98.29
69776;DHT22;57049;51.450;-2.516;2022-11-14T04:52:23;13.10;98.35
69776;DHT22;57049;51.450;-2.516;2022-11-14T04:54:48;13.13;98.48
69776;DHT22;57049;51.450;-2.516;2022-11-14T04:57:14;13.02;98.78
69776;DHT22;57049;51.450;-2.516;2022-11-14T04:59:40;13.02;98.86
69776;DHT22;57049;51.450;-2.516;2022-11-14T05:02:06;13.00;98.77
69776;DHT22;57049;51.450;-2.516;2022-11-14T05:04:31;12.95;98.84
69776;DHT22;57049;51.450;-2.516;2022-11-14T05:06:57;12.96;98.83
69776;DHT22;57049;51.450;-2.516;2022-11-14T05:09:22;12.93;98.95
69776;DHT22;57049;51.450;-2.516;2022-11-14T05:11:48;12.96;99.01
69776;DHT22;57049;51.450;-2.516;2022-11-14T05:14:14;12.95;98.95
69776;DHT22;57049;51.450;-2.516;2022-11-14T05:16:39;12.90;98.99
69776;DHT22;57049;51.450;-2.516;2022-11-14T05:19:04;12.93;98.88
69776;DHT22;57049;51.450;-2.516;2022-11-14T05:21:30;12.96;98.75
69776;DHT22;57049;51.450;-2.516;2022-11-14T05:23:55;12.95;98.56
69776;DHT22;57049;51.450;-2.516;2022-11-14T05:26:21;12.95;98.43
69776;DHT22;57049;51.450;-2.516;2022-11-14T05:28:46;12.96;98.24
69776;DHT22;57049;51.450;-2.516;2022-11-14T05:31:13;12.99;98.17
69776;DHT22;57049;51.450;-2.516;2022-11-14T05:33:42;12.97;97.97
69776;DHT22;57049;51.450;-2.516;2022-11-14T05:36:10;12.96;97.86
69776;DHT22;57049;51.450;-2.516;2022-11-14T05:38:36;12.96;98.10
69776;DHT22;57049;51.450;-2.516;2022-11-14T05:41:09;12.95;98.02
69776;DHT22;57049;51.450;-2.516;2022-11-14T05:43:35;12.97;97.88
69776;DHT22;57049;51.450;-2.516;2022-11-14T05:46:03;12.97;97.64
69776;DHT22;57049;51.450;-2.516;2022-11-14T05:48:29;13.02;97.64
69776;DHT22;57049;51.450;-2.516;2022-11-14T05:50:56;12.95;97.62
69776;DHT22;57049;51.450;-2.516;2022-11-14T05:53:22;12.97;97.44
69776;DHT22;57049;51.450;-2.516;2022-11-14T05:55:48;12.96;97.21
69776;DHT22;57049;51.450;-2.516;2022-11-14T05:58:14;12.95;97.32
69776;DHT22;57049;51.450;-2.516;2022-11-14T06:00:39;12.95;97.40
69776;DHT22;57049;51.450;-2.516;2022-11-14T06:03:05;12.97;97.28
69776;DHT22;57049;51.450;-2.516;2022-11-14T06:05:30;12.92;97.40
69776;DHT22;57049;51.450;-2.516;2022-11-14T06:07:57;12.90;97.46
69776;DHT22;57049;51.450;-2.516;2022-11-14T06:10:23;12.92;97.58
69776;DHT22;57049;51.450;-2.516;2022-11-14T06:12:49;13.00;97.09
69776;DHT22;57049;51.450;-2.516;2022-11-14T06:15:15;13.00;96.87
69776;DHT22;57049;51.450;-2.516;2022-11-14T06:17:41;13.07;96.81
69776;DHT22;57049;51.450;-2.516;2022-11-14T06:20:07;13.07;96.73
69776;DHT22;57049;51.450;-2.516;2022-11-14T06:22:32;13.04;96.88
69776;DHT22;57049;51.450;-2.516;2022-11-14T06:25:00;13.00;96.80
69776;DHT22;57049;51.450;-2.516;2022-11-14T06:27:26;13.00;96.77
69776;DHT22;57049;51.450;-2.516;2022-11-14T06:29:52;13.07;96.73
69776;DHT22;57049;51.450;-2.516;2022-11-14T06:32:18;12.92;97.01
69776;DHT22;57049;51.450;-2.516;2022-11-14T06:34:43;12.95;97.17
69776;DHT22;57049;51.450;-2.516;2022-11-14T06:37:09;12.86;97.35
69776;DHT22;57049;51.450;-2.516;2022-11-14T06:39:34;12.89;97.31
69776;DHT22;57049;51.450;-2.516;2022-11-14T06:42:00;12.88;97.38
69776;DHT22;57049;51.450;-2.516;2022-11-14T06:44:25;12.76;97.50
69776;DHT22;57049;51.450;-2.516;2022-11-14T06:46:51;12.73;97.78
69776;DHT22;57049;51.450;-2.516;2022-11-14T06:49:16;12.72;97.94
69776;DHT22;57049;51.450;-2.516;2022-11-14T06:51:42;12.75;97.95
69776;DHT22;57049;51.450;-2.516;2022-11-14T06:54:10;12.63;98.18
69776;DHT22;57049;51.450;-2.516;2022-11-14T06:56:36;12.58;98.41
69776;DHT22;57049;51.450;-2.516;2022-11-14T06:59:02;12.52;98.46
69776;DHT22;57049;51.450;-2.516;2022-11-14T07:01:27;12.63;98.46
69776;DHT22;57049;51.450;-2.516;2022-11-14T07:03:53;12.60;98.41
69776;DHT22;57049;51.450;-2.516;2022-11-14T07:06:24;12.66;98.28
69776;DHT22;57049;51.450;-2.516;2022-11-14T07:08:51;12.69;98.20
69776;DHT22;57049;51.450;-2.516;2022-11-14T07:11:22;12.76;97.98
69776;DHT22;57049;51.450;-2.516;2022-11-14T07:13:55;12.70;98.11
69776;DHT22;57049;51.450;-2.516;2022-11-14T07:16:39;12.73;98.22
69776;DHT22;57049;51.450;-2.516;2022-11-14T07:19:06;12.76;97.93
69776;DHT22;57049;51.450;-2.516;2022-11-14T07:21:35;12.78;97.77
69776;DHT22;57049;51.450;-2.516;2022-11-14T07:24:01;12.82;97.91
69776;DHT22;57049;51.450;-2.516;2022-11-14T07:26:27;12.83;97.83
69776;DHT22;57049;51.450;-2.516;2022-11-14T07:28:52;12.86;97.73
69776;DHT22;57049;51.450;-2.516;2022-11-14T07:31:19;12.90;97.72
69776;DHT22;57049;51.450;-2.516;2022-11-14T07:33:45;12.89;97.59
69776;DHT22;57049;51.450;-2.516;2022-11-14T07:36:11;12.86;97.59
69776;DHT22;57049;51.450;-2.516;2022-11-14T07:38:38;12.88;97.66
69776;DHT22;57049;51.450;-2.516;2022-11-14T07:41:06;12.86;97.79
69776;DHT22;57049;51.450;-2.516;2022-11-14T07:43:32;12.92;97.59
69776;DHT22;57049;51.450;-2.516;2022-11-14T07:46:13;12.93;97.58
69776;DHT22;57049;51.450;-2.516;2022-11-14T07:48:38;12.82;98.16
69776;DHT22;57049;51.450;-2.516;2022-11-14T07:51:06;12.79;98.29
69776;DHT22;57049;51.450;-2.516;2022-11-14T07:53:32;12.76;98.43
69776;DHT22;57049;51.450;-2.516;2022-11-14T07:56:03;12.76;98.70
69776;DHT22;57049;51.450;-2.516;2022-11-14T07:58:29;12.80;98.27
69776;DHT22;57049;51.450;-2.516;2022-11-14T08:00:58;12.83;98.31
69776;DHT22;57049;51.450;-2.516;2022-11-14T08:03:24;12.86;98.26
69776;DHT22;57049;51.450;-2.516;2022-11-14T08:05:50;12.95;98.02
69776;DHT22;57049;51.450;-2.516;2022-11-14T08:08:15;12.92;97.95
69776;DHT22;57049;51.450;-2.516;2022-11-14T08:10:41;13.02;97.54
69776;DHT22;57049;51.450;-2.516;2022-11-14T08:13:06;12.99;97.56
69776;DHT22;57049;51.450;-2.516;2022-11-14T08:15:32;12.99;97.46
69776;DHT22;57049;51.450;-2.516;2022-11-14T08:17:59;13.00;97.29
69776;DHT22;57049;51.450;-2.516;2022-11-14T08:20:25;12.97;97.52
69776;DHT22;57049;51.450;-2.516;2022-11-14T08:22:52;12.97;97.42
69776;DHT22;57049;51.450;-2.516;2022-11-14T08:25:18;13.03;97.07
69776;DHT22;57049;51.450;-2.516;2022-11-14T08:27:43;13.00;97.35
69776;DHT22;57049;51.450;-2.516;2022-11-14T08:30:09;13.06;97.17
69776;DHT22;57049;51.450;-2.516;2022-11-14T08:32:36;13.03;97.08
69776;DHT22;57049;51.450;-2.516;2022-11-14T08:35:01;13.09;97.02
69776;DHT22;57049;51.450;-2.516;2022-11-14T08:37:27;13.11;96.76
69776;DHT22;57049;51.450;-2.516;2022-11-14T08:39:52;13.11;96.82
69776;DHT22;57049;51.450;-2.516;2022-11-14T08:42:17;13.16;96.94
69776;DHT22;57049;51.450;-2.516;2022-11-14T08:44:43;13.16;96.93
69776;DHT22;57049;51.450;-2.516;2022-11-14T08:47:08;13.14;96.87
69776;DHT22;57049;51.450;-2.516;2022-11-14T08:49:34;13.20;96.62
69776;DHT22;57049;51.450;-2.516;2022-11-14T08:51:59;13.30;96.33
69776;DHT22;57049;51.450;-2.516;2022-11-14T08:54:25;13.34;96.12
69776;DHT22;57049;51.450;-2.516;2022-11-14T08:56:50;13.33;96.40
69776;DHT22;57049;51.450;-2.516;2022-11-14T08:59:16;13.36;96.26
69776;DHT22;57049;51.450;-2.516;2022-11-14T09:01:41;13.41;96.01
69776;DHT22;57049;51.450;-2.516;2022-11-14T09:04:07;13.47;95.64
69776;DHT22;57049;51.450;-2.516;2022-11-14T09:06:33;13.51;95.68
69776;DHT22;57049;51.450;-2.516;2022-11-14T09:08:58;13.46;95.85
69776;DHT22;57049;51.450;-2.516;2022-11-14T09:11:24;13.50;95.64
69776;DHT22;57049;51.450;-2.516;2022-11-14T09:13:50;13.51;95.49
69776;DHT22;57049;51.450;-2.516;2022-11-14T09:16:15;13.57;95.46
69776;DHT22;57049;51.450;-2.516;2022-11-14T09:18:41;13.60;95.34
69776;DHT22;57049;51.450;-2.516;2022-11-14T09:21:07;13.54;95.51
69776;DHT22;57049;51.450;-2.516;2022-11-14T09:23:33;13.53;95.77
69776;DHT22;57049;51.450;-2.516;2022-11-14T09:26:04;13.53;95.78
69776;DHT22;57049;51.450;-2.516;2022-11-14T09:28:30;13.57;95.63
69776;DHT22;57049;51.450;-2.516;2022-11-14T09:31:03;13.58;95.71
69776;DHT22;57049;51.450;-2.516;2022-11-14T09:33:29;13.60;95.74
69776;DHT22;57049;51.450;-2.516;2022-11-14T09:35:59;13.64;95.56
69776;DHT22;57049;51.450;-2.516;2022-11-14T09:38:25;13.60;95.83
69776;DHT22;57049;51.450;-2.516;2022-11-14T09:46:37;13.65;95.61
69776;DHT22;57049;51.450;-2.516;2022-11-14T09:49:09;13.70;95.56
69776;DHT22;57049;51.450;-2.516;2022-11-14T09:51:44;13.72;95.39
69776;DHT22;57049;51.450;-2.516;2022-11-14T09:54:47;13.72;95.46
69776;DHT22;57049;51.450;-2.516;2022-11-14T09:57:17;13.74;95.53
69776;DHT22;57049;51.450;-2.516;2022-11-14T09:59:43;13.79;95.32
69776;DHT22;57049;51.450;-2.516;2022-11-14T10:05:00;13.92;95.39
69776;DHT22;57049;51.450;-2.516;2022-11-14T10:10:09;14.13;94.69
69776;DHT22;57049;51.450;-2.516;2022-11-14T10:15:30;14.06;94.42
69776;DHT22;57049;51.450;-2.516;2022-11-14T10:18:24;14.12;94.30
69776;DHT22;57049;51.450;-2.516;2022-11-14T10:20:57;14.23;94.28
69776;DHT22;57049;51.450;-2.516;2022-11-14T10:34:30;14.91;92.24
69776;DHT22;57049;51.450;-2.516;2022-11-14T10:37:08;14.91;92.42
69776;DHT22;57049;51.450;-2.516;2022-11-14T10:39:43;14.93;92.14
69776;DHT22;57049;51.450;-2.516;2022-11-14T10:42:23;14.87;92.63
69776;DHT22;57049;51.450;-2.516;2022-11-14T10:44:57;14.91;92.52
69776;DHT22;57049;51.450;-2.516;2022-11-14T10:47:34;15.03;92.22
69776;DHT22;57049;51.450;-2.516;2022-11-14T10:50:13;15.12;92.17
69776;DHT22;57049;51.450;-2.516;2022-11-14T10:52:41;15.14;92.05
69776;DHT22;57049;51.450;-2.516;2022-11-14T10:55:16;15.23;91.77
69776;DHT22;57049;51.450;-2.516;2022-11-14T10:57:44;15.28;91.63
69776;DHT22;57049;51.450;-2.516;2022-11-14T11:00:11;15.31;90.92
69776;DHT22;57049;51.450;-2.516;2022-11-14T11:02:55;15.25;90.62
69776;DHT22;57049;51.450;-2.516;2022-11-14T11:05:23;15.23;91.23
69776;DHT22;57049;51.450;-2.516;2022-11-14T11:07:50;15.12;91.65
69776;DHT22;57049;51.450;-2.516;2022-11-14T11:10:39;15.20;91.38
69776;DHT22;57049;51.450;-2.516;2022-11-14T11:13:49;15.36;91.02
69776;DHT22;57049;51.450;-2.516;2022-11-14T11:16:20;15.42;91.37
69776;DHT22;57049;51.450;-2.516;2022-11-14T11:18:45;15.56;90.82
69776;DHT22;57049;51.450;-2.516;2022-11-14T11:21:13;15.61;90.89
69776;DHT22;57049;51.450;-2.516;2022-11-14T11:23:53;15.73;90.68
69776;DHT22;57049;51.450;-2.516;2022-11-14T11:26:27;15.79;89.69
69776;DHT22;57049;51.450;-2.516;2022-11-14T11:31:26;15.78;90.89
69776;DHT22;57049;51.450;-2.516;2022-11-14T11:33:52;15.81;90.56
69776;DHT22;57049;51.450;-2.516;2022-11-14T11:36:20;15.82;90.11
69776;DHT22;57049;51.450;-2.516;2022-11-14T11:38:46;15.89;90.53
69776;DHT22;57049;51.450;-2.516;2022-11-14T11:41:26;15.89;90.05
69776;DHT22;57049;51.450;-2.516;2022-11-14T11:43:55;15.82;89.66
69776;DHT22;57049;51.450;-2.516;2022-11-14T11:49:50;15.67;89.46
69776;DHT22;57049;51.450;-2.516;2022-11-14T11:52:32;15.58;89.69
69776;DHT22;57049;51.450;-2.516;2022-11-14T11:57:43;15.48;89.87
69776;DHT22;57049;51.450;-2.516;2022-11-14T12:02:41;15.36;91.17
69776;DHT22;57049;51.450;-2.516;2022-11-14T12:05:13;15.34;90.76
69776;DHT22;57049;51.450;-2.516;2022-11-14T12:07:48;15.31;91.34
69776;DHT22;57049;51.450;-2.516;2022-11-14T12:10:19;15.34;90.70
69776;DHT22;57049;51.450;-2.516;2022-11-14T12:27:14;15.63;90.94
69776;DHT22;57049;51.450;-2.516;2022-11-14T12:30:02;15.69;90.13
69776;DHT22;57049;51.450;-2.516;2022-11-14T12:32:37;15.78;89.83
69776;DHT22;57049;51.450;-2.516;2022-11-14T12:35:06;15.65;90.30
69776;DHT22;57049;51.450;-2.516;2022-11-14T12:37:37;15.52;90.37
69776;DHT22;57049;51.450;-2.516;2022-11-14T12:43:02;15.31;91.23
69776;DHT22;57049;51.450;-2.516;2022-11-14T12:50:51;15.31;90.98
69776;DHT22;57049;51.450;-2.516;2022-11-14T13:07:32;15.10;91.52
69776;DHT22;57049;51.450;-2.516;2022-11-14T13:12:34;15.03;92.01
69776;DHT22;57049;51.450;-2.516;2022-11-14T13:15:31;14.94;92.49
69776;DHT22;57049;51.450;-2.516;2022-11-14T13:18:23;14.80;93.58
69776;DHT22;57049;51.450;-2.516;2022-11-14T13:21:22;14.49;93.67
69776;DHT22;57049;51.450;-2.516;2022-11-14T13:24:07;14.13;94.57
69776;DHT22;57049;51.450;-2.516;2022-11-14T13:26:35;13.97;95.10
69776;DHT22;57049;51.450;-2.516;2022-11-14T13:29:00;13.88;95.54
69776;DHT22;57049;51.450;-2.516;2022-11-14T13:34:27;13.70;95.75
69776;DHT22;57049;51.450;-2.516;2022-11-14T13:37:04;13.54;96.47
69776;DHT22;57049;51.450;-2.516;2022-11-14T13:39:47;13.41;96.80
69776;DHT22;57049;51.450;-2.516;2022-11-14T13:45:24;13.43;97.39
69776;DHT22;57049;51.450;-2.516;2022-11-14T13:50:37;13.39;96.54
69776;DHT22;57049;51.450;-2.516;2022-11-14T13:53:16;13.34;96.54
69776;DHT22;57049;51.450;-2.516;2022-11-14T13:56:02;13.36;96.77
69776;DHT22;57049;51.450;-2.516;2022-11-14T13:58:55;13.26;96.60
69776;DHT22;57049;51.450;-2.516;2022-11-14T14:07:18;13.19;96.61
69776;DHT22;57049;51.450;-2.516;2022-11-14T14:17:53;12.99;97.00
69776;DHT22;57049;51.450;-2.516;2022-11-14T14:20:43;12.99;97.20
69776;DHT22;57049;51.450;-2.516;2022-11-14T14:31:18;12.96;96.63
69776;DHT22;57049;51.450;-2.516;2022-11-14T14:33:48;12.86;95.81
69776;DHT22;57049;51.450;-2.516;2022-11-14T14:38:44;12.96;95.64
69776;DHT22;57049;51.450;-2.516;2022-11-14T14:41:12;12.86;95.34
69776;DHT22;57049;51.450;-2.516;2022-11-14T14:43:40;12.85;95.86
69776;DHT22;57049;51.450;-2.516;2022-11-14T14:46:07;12.73;95.39
69776;DHT22;57049;51.450;-2.516;2022-11-14T14:48:35;12.75;94.75
69776;DHT22;57049;51.450;-2.516;2022-11-14T14:51:03;12.78;95.38
69776;DHT22;57049;51.450;-2.516;2022-11-14T14:53:33;12.70;95.56
69776;DHT22;57049;51.450;-2.516;2022-11-14T14:56:04;12.62;95.63
69776;DHT22;57049;51.450;-2.516;2022-11-14T14:58:32;12.59;95.89
69776;DHT22;57049;51.450;-2.516;2022-11-14T15:01:01;12.52;95.93
69776;DHT22;57049;51.450;-2.516;2022-11-14T15:03:34;12.44;95.74
69776;DHT22;57049;51.450;-2.516;2022-11-14T15:06:06;12.41;96.35
69776;DHT22;57049;51.450;-2.516;2022-11-14T15:08:41;12.46;95.55
69776;DHT22;57049;51.450;-2.516;2022-11-14T15:11:08;12.41;95.93
69776;DHT22;57049;51.450;-2.516;2022-11-14T15:13:34;12.38;95.94
69776;DHT22;57049;51.450;-2.516;2022-11-14T15:16:00;12.32;96.77
69776;DHT22;57049;51.450;-2.516;2022-11-14T15:18:29;12.34;97.11
69776;DHT22;57049;51.450;-2.516;2022-11-14T15:21:16;12.31;97.19
69776;DHT22;57049;51.450;-2.516;2022-11-14T15:23:57;12.24;97.25
69776;DHT22;57049;51.450;-2.516;2022-11-14T15:26:23;12.22;97.15
69776;DHT22;57049;51.450;-2.516;2022-11-14T15:28:49;12.05;97.06
69776;DHT22;57049;51.450;-2.516;2022-11-14T15:31:17;11.94;97.11
69776;DHT22;57049;51.450;-2.516;2022-11-14T15:33:44;11.87;97.26
69776;DHT22;57049;51.450;-2.516;2022-11-14T15:36:12;11.87;97.32
69776;DHT22;57049;51.450;-2.516;2022-11-14T15:38:38;11.88;96.97
69776;DHT22;57049;51.450;-2.516;2022-11-14T15:41:24;11.83;96.81
69776;DHT22;57049;51.450;-2.516;2022-11-14T15:43:53;11.77;97.22
69776;DHT22;57049;51.450;-2.516;2022-11-14T15:49:23;11.81;97.76
69776;DHT22;57049;51.450;-2.516;2022-11-14T15:51:57;11.73;98.15
69776;DHT22;57049;51.450;-2.516;2022-11-14T15:57:12;11.76;98.16
69776;DHT22;57049;51.450;-2.516;2022-11-14T15:59:38;11.80;98.19
69776;DHT22;57049;51.450;-2.516;2022-11-14T16:02:25;11.74;98.27
69776;DHT22;57049;51.450;-2.516;2022-11-14T16:04:53;11.77;98.24
69776;DHT22;57049;51.450;-2.516;2022-11-14T16:07:20;11.78;98.06
69776;DHT22;57049;51.450;-2.516;2022-11-14T16:09:46;11.76;98.24
69776;DHT22;57049;51.450;-2.516;2022-11-14T16:12:11;11.83;97.81
69776;DHT22;57049;51.450;-2.516;2022-11-14T16:14:37;11.76;98.00
69776;DHT22;57049;51.450;-2.516;2022-11-14T16:17:02;11.77;97.29
69776;DHT22;57049;51.450;-2.516;2022-11-14T16:19:28;11.73;97.86
69776;DHT22;57049;51.450;-2.516;2022-11-14T16:21:57;11.69;97.66
69776;DHT22;57049;51.450;-2.516;2022-11-14T16:24:23;11.69;97.60
69776;DHT22;57049;51.450;-2.516;2022-11-14T16:26:49;11.59;97.61
69776;DHT22;57049;51.450;-2.516;2022-11-14T16:29:15;11.56;97.80
69776;DHT22;57049;51.450;-2.516;2022-11-14T16:31:40;11.52;97.50
69776;DHT22;57049;51.450;-2.516;2022-11-14T16:34:06;11.53;97.31
69776;DHT22;57049;51.450;-2.516;2022-11-14T16:36:32;11.53;97.39
69776;DHT22;57049;51.450;-2.516;2022-11-14T16:39:00;11.52;97.29
69776;DHT22;57049;51.450;-2.516;2022-11-14T16:41:26;11.50;96.96
69776;DHT22;57049;51.450;-2.516;2022-11-14T16:43:55;11.50;97.19
69776;DHT22;57049;51.450;-2.516;2022-11-14T16:46:22;11.56;97.13
69776;DHT22;57049;51.450;-2.516;2022-11-14T16:48:47;11.56;97.09
69776;DHT22;57049;51.450;-2.516;2022-11-14T16:51:13;11.50;97.06
69776;DHT22;57049;51.450;-2.516;2022-11-14T16:53:38;11.50;97.39
69776;DHT22;57049;51.450;-2.516;2022-11-14T16:56:04;11.49;97.28
69776;DHT22;57049;51.450;-2.516;2022-11-14T16:58:30;11.49;97.42
69776;DHT22;57049;51.450;-2.516;2022-11-14T17:00:55;11.47;97.29
69776;DHT22;57049;51.450;-2.516;2022-11-14T17:03:21;11.46;97.42
69776;DHT22;57049;51.450;-2.516;2022-11-14T17:05:48;11.44;97.48
69776;DHT22;57049;51.450;-2.516;2022-11-14T17:08:14;11.47;97.39
69776;DHT22;57049;51.450;-2.516;2022-11-14T17:10:44;11.46;97.27
69776;DHT22;57049;51.450;-2.516;2022-11-14T17:13:11;11.46;97.15
69776;DHT22;57049;51.450;-2.516;2022-11-14T17:15:37;11.43;97.04
69776;DHT22;57049;51.450;-2.516;2022-11-14T17:18:03;11.43;96.80
69776;DHT22;57049;51.450;-2.516;2022-11-14T17:20:29;11.44;96.44
69776;DHT22;57049;51.450;-2.516;2022-11-14T17:22:54;11.36;96.12